Island Escape — C6SK4 — position and weather

sailwx.info

Track history (hours):
 
Tides and Currents Weather Stations Pressure Air Temp Water Temp Dewpoint Dewpoint Depression Visibility Wind Speed Wind Dir Waves Ship Positions

Island Escape

Operator: V Ships Leisure SAM

Last reported at 2015-Apr-28 17:32 UTC. Time now 2015-Apr-28 18:22 UTC.
Position N 39°33' E 002°38'.

Length 185 m; draft 7.3 m.

Type: Passenger vessel. MMSI: 311368000.

Date/timePositionNaut miles runAvg speedWind from/ knotsBaromVisibWave heightAir tempDewpointWater temp
2015-Apr-28 17:32N 39°33' E 002°38'0 0.0
2015-Apr-28 16:32N 39°33' E 002°38'0 0.0
2015-Apr-28 15:32N 39°33' E 002°38'0 0.0
2015-Apr-28 14:32N 39°33' E 002°38'0 0.0
2015-Apr-28 13:32N 39°33' E 002°38'0 0.0
2015-Apr-28 12:26N 39°33' E 002°38'0 0.0
2015-Apr-28 11:32N 39°33' E 002°38'0 0.0
2015-Apr-28 10:26N 39°33' E 002°38'0 0.0
2015-Apr-28 09:32N 39°33' E 002°38'0 0.0
2015-Apr-28 08:32N 39°33' E 002°38'0 0.0
2015-Apr-28 07:32N 39°33' E 002°38'0 0.0
2015-Apr-28 06:32N 39°33' E 002°38'0 0.0
2015-Apr-28 05:32N 39°33' E 002°38'0 0.0
2015-Apr-28 04:26N 39°33' E 002°38'0 0.0
2015-Apr-28 03:33N 39°33' E 002°38'5 5.1
2015-Apr-28 02:33N 39°28' E 002°36'1010.5
2015-Apr-28 01:33N 39°24' E 002°24'1414.0
2015-Apr-28 00:33N 39°34' E 002°10'1413.9
2015-Apr-27 23:33N 39°48' E 002°10'1414.1
2015-Apr-27 22:33N 40°01' E 002°10'1414.1
2015-Apr-27 21:33N 40°16' E 002°11'1514.6
2015-Apr-27 20:33N 40°30' E 002°12'1817.5
2015-Apr-27 19:33N 40°48' E 002°12'1717.4
2015-Apr-27 18:33N 41°05' E 002°13'1615.3
2015-Apr-27 17:30N 41°21' E 002°11'1 0.4
2015-Apr-27 15:30N 41°22' E 002°11'0 0.0
2015-Apr-27 14:12N 41°22' E 002°11'0 0.0
2015-Apr-27 13:12N 41°22' E 002°11'8 1.6
2015-Apr-27 08:25N 41°20' E 002°21'3216.5
2015-Apr-27 06:28N 41°29' E 003°02'2016.6
2015-Apr-27 05:15N 41°40' E 003°25'3912.4
2015-Apr-27 02:08N 41°58' E 004°11'4712.5
2015-Apr-26 22:23N 42°17' E 005°08'1512.7
2015-Apr-26 21:13N 42°23' E 005°26'1416.8
2015-Apr-26 20:23N 42°29' E 005°44'8516.8
2015-Apr-26 15:17N 43°26' E 007°11'1216.7
2015-Apr-26 14:33N 43°37' E 007°16'4 2.1
2015-Apr-26 12:30N 43°42' E 007°17'0 0.0
2015-Apr-26 11:30N 43°42' E 007°17'0 0.0
2015-Apr-26 08:30N 43°42' E 007°17'0 0.0
2015-Apr-26 06:30N 43°42' E 007°17'0 0.0
2015-Apr-26 05:33N 43°42' E 007°17'6 4.8
2015-Apr-26 04:15N 43°37' E 007°23'4511.6
2015-Apr-26 00:19N 43°35' E 008°26'911.9
2015-Apr-25 23:33N 43°34' E 008°38'1211.6
2015-Apr-25 22:33N 43°33' E 008°54'1212.0
2015-Apr-25 21:33N 43°33' E 009°11'1211.9
2015-Apr-25 20:33N 43°33' E 009°27'1211.7
2015-Apr-25 19:33N 43°33' E 009°43'1211.8
2015-Apr-25 18:33N 43°31' E 009°59'1111.4
2015-Apr-25 17:33N 43°32' E 010°15'2 2.1
2015-Apr-25 16:28N 43°33' E 010°18'0 0.0
2015-Apr-25 15:30N 43°33' E 010°18'0 0.0
2015-Apr-25 14:33N 43°33' E 010°18'0 0.0
2015-Apr-25 13:33N 43°33' E 010°18'0 0.0
2015-Apr-25 12:33N 43°33' E 010°18'0 0.0
2015-Apr-25 11:33N 43°33' E 010°18'0 0.0
2015-Apr-25 10:33N 43°33' E 010°18'0 0.0
2015-Apr-25 09:27N 43°33' E 010°18'0 0.0
2015-Apr-25 08:33N 43°33' E 010°18'0 0.0
2015-Apr-25 07:33N 43°33' E 010°18'0 0.0
2015-Apr-25 06:33N 43°33' E 010°18'0 0.0
2015-Apr-25 05:33N 43°33' E 010°18'0 0.3
2015-Apr-25 04:33N 43°33' E 010°18'7 7.0
2015-Apr-25 03:33N 43°27' E 010°12'1616.4
2015-Apr-25 02:33N 43°11' E 010°07'1212.3
2015-Apr-25 01:33N 42°59' E 010°03'1313.2
2015-Apr-25 00:34N 42°46' E 009°60'1713.5
2015-Apr-24 23:20N 42°34' E 010°15'1112.9
2015-Apr-24 22:28N 42°25' E 010°24'1612.6
2015-Apr-24 21:12N 42°12' E 010°37'1312.1
2015-Apr-24 20:08N 42°04' E 010°50'141 3.3
2015-Apr-23 01:12N 41°27' E 007°48'3511.7
2015-Apr-22 22:11N 41°08' E 007°08'1012.1
2015-Apr-22 21:20N 41°03' E 006°56'2711.9
2015-Apr-22 19:05N 40°49' E 006°26'912.3
2015-Apr-22 18:23N 40°45' E 006°16'1012.0
2015-Apr-22 17:33N 40°40' E 006°05'1212.1
2015-Apr-22 16:33N 40°33' E 005°51'1612.3
2015-Apr-22 15:16N 40°25' E 005°34'1211.6
2015-Apr-22 14:12N 40°18' E 005°20'3512.1
2015-Apr-22 11:18N 39°59' E 004°42'20 9.3
2015-Apr-22 09:11N 39°48' E 004°20'914.3
2015-Apr-22 08:33N 39°43' E 004°11'1717.2
2015-Apr-22 07:33N 39°34' E 003°52'1817.1
2015-Apr-22 06:32N 39°25' E 003°32'1313.3
2015-Apr-22 05:33N 39°18' E 003°18'9 9.1
2015-Apr-22 04:33N 39°16' E 003°29'6 5.4
2015-Apr-22 03:32N 39°12' E 003°34'1010.4
2015-Apr-22 02:33N 39°06' E 003°22'1010.3
2015-Apr-22 01:32N 39°03' E 003°10'1010.4
2015-Apr-22 00:32N 39°02' E 002°56'9 9.6
2015-Apr-21 23:33N 39°08' E 002°47'1111.4
2015-Apr-21 22:33N 39°19' E 002°44'1111.5
2015-Apr-21 21:33N 39°30' E 002°40'3 3.5
2015-Apr-21 20:33N 39°33' E 002°38'0 0.0
2015-Apr-21 19:33N 39°33' E 002°38'0 0.0
2015-Apr-21 18:27N 39°33' E 002°38'0 0.0
2015-Apr-21 17:30N 39°33' E 002°38'0 0.0
2015-Apr-21 16:33N 39°33' E 002°38'0 0.0
2015-Apr-21 15:30N 39°33' E 002°38'0 0.0
2015-Apr-21 14:30N 39°33' E 002°38'0 0.0
2015-Apr-21 13:33N 39°33' E 002°38'0 0.0
2015-Apr-21 12:33N 39°33' E 002°38'0 0.0
2015-Apr-21 11:33N 39°33' E 002°38'0 0.0
2015-Apr-21 10:33N 39°33' E 002°38'0 0.0
2015-Apr-21 09:30N 39°33' E 002°38'0 0.0
2015-Apr-21 08:30N 39°33' E 002°38'0 0.0
2015-Apr-21 07:33N 39°33' E 002°38'0 0.0
2015-Apr-21 06:33N 39°33' E 002°38'0 0.0
2015-Apr-21 05:33N 39°33' E 002°38'0 0.0
2015-Apr-21 04:33N 39°33' E 002°38'0 0.2
2015-Apr-21 03:32N 39°33' E 002°38'6 5.6
2015-Apr-21 02:33N 39°28' E 002°36'1111.1
2015-Apr-21 01:32N 39°29' E 002°21'1414.6
2015-Apr-21 00:33N 39°43' E 002°15'1615.8
2015-Apr-20 23:33N 39°59' E 002°14'1716.9
2015-Apr-20 22:33N 40°15' E 002°14'1717.2
2015-Apr-20 21:33N 40°32' E 002°14'1717.2
2015-Apr-20 20:33N 40°50' E 002°14'1717.1
2015-Apr-20 19:33N 41°07' E 002°13'1512.5
2015-Apr-20 18:20N 41°22' E 002°11'0 0.2
2015-Apr-20 16:04N 41°22' E 002°11'0 0.0
2015-Apr-20 14:10N 41°22' E 002°11'0 0.0
2015-Apr-20 13:16N 41°22' E 002°11'0 0.1
2015-Apr-20 09:08N 41°22' E 002°11'2010.4
2015-Apr-20 07:15N 41°20' E 002°37'1213.7
2015-Apr-20 06:22N 41°26' E 002°51'11815.1
2015-Apr-19 22:33N 42°18' E 005°13'11015.8
2015-Apr-19 15:33N 43°27' E 007°11'1514.5
2015-Apr-19 14:30N 43°41' E 007°17'0 0.3
2015-Apr-19 13:27N 43°42' E 007°17'0 0.0
2015-Apr-19 12:33N 43°42' E 007°17'0 0.0
2015-Apr-19 11:33N 43°42' E 007°17'0 0.0
2015-Apr-19 10:33N 43°42' E 007°17'0 0.0
2015-Apr-19 09:33N 43°42' E 007°17'0 0.0
2015-Apr-19 08:33N 43°42' E 007°17'0 0.0
2015-Apr-19 07:33N 43°42' E 007°17'0 0.0
2015-Apr-19 06:27N 43°42' E 007°17'0 0.0
2015-Apr-19 05:33N 43°42' E 007°17'6 5.5
2015-Apr-19 04:32N 43°37' E 007°21'6011.8
2015-Apr-18 23:28N 43°34' E 008°44'1112.2
2015-Apr-18 22:33N 43°33' E 008°59'1212.4
2015-Apr-18 21:33N 43°32' E 009°17'1212.0
2015-Apr-18 20:33N 43°32' E 009°33'1211.9
2015-Apr-18 19:33N 43°31' E 009°49'1211.8
2015-Apr-18 18:33N 43°30' E 010°06'9 9.1
2015-Apr-18 17:33N 43°33' E 010°18'  
Track history (hours):
 
Tides and Currents Weather Stations Pressure Air Temp Water Temp Dewpoint Dewpoint Depression Visibility Wind Speed Wind Dir Waves Ship Positions

Island Escape

Operator: V Ships Leisure SAM

Last reported at 2015-Apr-28 17:32 UTC. Time now 2015-Apr-28 18:22 UTC.
Position N 39°33' E 002°38'.

Length 185 m; draft 7.3 m.

Type: Passenger vessel. MMSI: 311368000.

Date/timePositionNaut miles runAvg speedWind from/ knotsBaromVisibWave heightAir tempDewpointWater temp
2015-Apr-28 17:32N 39°33' E 002°38'0 0.0
2015-Apr-28 16:32N 39°33' E 002°38'0 0.0
2015-Apr-28 15:32N 39°33' E 002°38'0 0.0
2015-Apr-28 14:32N 39°33' E 002°38'0 0.0
2015-Apr-28 13:32N 39°33' E 002°38'0 0.0
2015-Apr-28 12:26N 39°33' E 002°38'0 0.0
2015-Apr-28 11:32N 39°33' E 002°38'0 0.0
2015-Apr-28 10:26N 39°33' E 002°38'0 0.0
2015-Apr-28 09:32N 39°33' E 002°38'0 0.0
2015-Apr-28 08:32N 39°33' E 002°38'0 0.0
2015-Apr-28 07:32N 39°33' E 002°38'0 0.0
2015-Apr-28 06:32N 39°33' E 002°38'0 0.0
2015-Apr-28 05:32N 39°33' E 002°38'0 0.0
2015-Apr-28 04:26N 39°33' E 002°38'0 0.0
2015-Apr-28 03:33N 39°33' E 002°38'5 5.1
2015-Apr-28 02:33N 39°28' E 002°36'1010.5
2015-Apr-28 01:33N 39°24' E 002°24'1414.0
2015-Apr-28 00:33N 39°34' E 002°10'1413.9
2015-Apr-27 23:33N 39°48' E 002°10'1414.1
2015-Apr-27 22:33N 40°01' E 002°10'1414.1
2015-Apr-27 21:33N 40°16' E 002°11'1514.6
2015-Apr-27 20:33N 40°30' E 002°12'1817.5
2015-Apr-27 19:33N 40°48' E 002°12'1717.4
2015-Apr-27 18:33N 41°05' E 002°13'1615.3
2015-Apr-27 17:30N 41°21' E 002°11'1 0.4
2015-Apr-27 15:30N 41°22' E 002°11'0 0.0
2015-Apr-27 14:12N 41°22' E 002°11'0 0.0
2015-Apr-27 13:12N 41°22' E 002°11'8 1.6
2015-Apr-27 08:25N 41°20' E 002°21'3216.5
2015-Apr-27 06:28N 41°29' E 003°02'2016.6
2015-Apr-27 05:15N 41°40' E 003°25'3912.4
2015-Apr-27 02:08N 41°58' E 004°11'4712.5
2015-Apr-26 22:23N 42°17' E 005°08'1512.7
2015-Apr-26 21:13N 42°23' E 005°26'1416.8
2015-Apr-26 20:23N 42°29' E 005°44'8516.8
2015-Apr-26 15:17N 43°26' E 007°11'1216.7
2015-Apr-26 14:33N 43°37' E 007°16'4 2.1
2015-Apr-26 12:30N 43°42' E 007°17'0 0.0
2015-Apr-26 11:30N 43°42' E 007°17'0 0.0
2015-Apr-26 08:30N 43°42' E 007°17'0 0.0
2015-Apr-26 06:30N 43°42' E 007°17'0 0.0
2015-Apr-26 05:33N 43°42' E 007°17'6 4.8
2015-Apr-26 04:15N 43°37' E 007°23'4511.6
2015-Apr-26 00:19N 43°35' E 008°26'911.9
2015-Apr-25 23:33N 43°34' E 008°38'1211.6
2015-Apr-25 22:33N 43°33' E 008°54'1212.0
2015-Apr-25 21:33N 43°33' E 009°11'1211.9
2015-Apr-25 20:33N 43°33' E 009°27'1211.7
2015-Apr-25 19:33N 43°33' E 009°43'1211.8
2015-Apr-25 18:33N 43°31' E 009°59'1111.4
2015-Apr-25 17:33N 43°32' E 010°15'2 2.1
2015-Apr-25 16:28N 43°33' E 010°18'0 0.0
2015-Apr-25 15:30N 43°33' E 010°18'0 0.0
2015-Apr-25 14:33N 43°33' E 010°18'0 0.0
2015-Apr-25 13:33N 43°33' E 010°18'0 0.0
2015-Apr-25 12:33N 43°33' E 010°18'0 0.0
2015-Apr-25 11:33N 43°33' E 010°18'0 0.0
2015-Apr-25 10:33N 43°33' E 010°18'0 0.0
2015-Apr-25 09:27N 43°33' E 010°18'0 0.0
2015-Apr-25 08:33N 43°33' E 010°18'0 0.0
2015-Apr-25 07:33N 43°33' E 010°18'0 0.0
2015-Apr-25 06:33N 43°33' E 010°18'0 0.0
2015-Apr-25 05:33N 43°33' E 010°18'0 0.3
2015-Apr-25 04:33N 43°33' E 010°18'7 7.0
2015-Apr-25 03:33N 43°27' E 010°12'1616.4
2015-Apr-25 02:33N 43°11' E 010°07'1212.3
2015-Apr-25 01:33N 42°59' E 010°03'1313.2
2015-Apr-25 00:34N 42°46' E 009°60'1713.5
2015-Apr-24 23:20N 42°34' E 010°15'1112.9
2015-Apr-24 22:28N 42°25' E 010°24'1612.6
2015-Apr-24 21:12N 42°12' E 010°37'1312.1
2015-Apr-24 20:08N 42°04' E 010°50'141 3.3
2015-Apr-23 01:12N 41°27' E 007°48'3511.7
2015-Apr-22 22:11N 41°08' E 007°08'1012.1
2015-Apr-22 21:20N 41°03' E 006°56'2711.9
2015-Apr-22 19:05N 40°49' E 006°26'912.3
2015-Apr-22 18:23N 40°45' E 006°16'1012.0
2015-Apr-22 17:33N 40°40' E 006°05'1212.1
2015-Apr-22 16:33N 40°33' E 005°51'1612.3
2015-Apr-22 15:16N 40°25' E 005°34'1211.6
2015-Apr-22 14:12N 40°18' E 005°20'3512.1
2015-Apr-22 11:18N 39°59' E 004°42'20 9.3
2015-Apr-22 09:11N 39°48' E 004°20'914.3
2015-Apr-22 08:33N 39°43' E 004°11'1717.2
2015-Apr-22 07:33N 39°34' E 003°52'1817.1
2015-Apr-22 06:32N 39°25' E 003°32'1313.3
2015-Apr-22 05:33N 39°18' E 003°18'9 9.1
2015-Apr-22 04:33N 39°16' E 003°29'6 5.4
2015-Apr-22 03:32N 39°12' E 003°34'1010.4
2015-Apr-22 02:33N 39°06' E 003°22'1010.3
2015-Apr-22 01:32N 39°03' E 003°10'1010.4
2015-Apr-22 00:32N 39°02' E 002°56'9 9.6
2015-Apr-21 23:33N 39°08' E 002°47'1111.4
2015-Apr-21 22:33N 39°19' E 002°44'1111.5
2015-Apr-21 21:33N 39°30' E 002°40'3 3.5
2015-Apr-21 20:33N 39°33' E 002°38'0 0.0
2015-Apr-21 19:33N 39°33' E 002°38'0 0.0
2015-Apr-21 18:27N 39°33' E 002°38'0 0.0
2015-Apr-21 17:30N 39°33' E 002°38'0 0.0
2015-Apr-21 16:33N 39°33' E 002°38'0 0.0
2015-Apr-21 15:30N 39°33' E 002°38'0 0.0
2015-Apr-21 14:30N 39°33' E 002°38'0 0.0
2015-Apr-21 13:33N 39°33' E 002°38'0 0.0
2015-Apr-21 12:33N 39°33' E 002°38'0 0.0
2015-Apr-21 11:33N 39°33' E 002°38'0 0.0
2015-Apr-21 10:33N 39°33' E 002°38'0 0.0
2015-Apr-21 09:30N 39°33' E 002°38'0 0.0
2015-Apr-21 08:30N 39°33' E 002°38'0 0.0
2015-Apr-21 07:33N 39°33' E 002°38'0 0.0
2015-Apr-21 06:33N 39°33' E 002°38'0 0.0
2015-Apr-21 05:33N 39°33' E 002°38'0 0.0
2015-Apr-21 04:33N 39°33' E 002°38'0 0.2
2015-Apr-21 03:32N 39°33' E 002°38'6 5.6
2015-Apr-21 02:33N 39°28' E 002°36'1111.1
2015-Apr-21 01:32N 39°29' E 002°21'1414.6
2015-Apr-21 00:33N 39°43' E 002°15'1615.8
2015-Apr-20 23:33N 39°59' E 002°14'1716.9
2015-Apr-20 22:33N 40°15' E 002°14'1717.2
2015-Apr-20 21:33N 40°32' E 002°14'1717.2
2015-Apr-20 20:33N 40°50' E 002°14'1717.1
2015-Apr-20 19:33N 41°07' E 002°13'1512.5
2015-Apr-20 18:20N 41°22' E 002°11'0 0.2
2015-Apr-20 16:04N 41°22' E 002°11'0 0.0
2015-Apr-20 14:10N 41°22' E 002°11'0 0.0
2015-Apr-20 13:16N 41°22' E 002°11'0 0.1
2015-Apr-20 09:08N 41°22' E 002°11'2010.4
2015-Apr-20 07:15N 41°20' E 002°37'1213.7
2015-Apr-20 06:22N 41°26' E 002°51'11815.1
2015-Apr-19 22:33N 42°18' E 005°13'11015.8
2015-Apr-19 15:33N 43°27' E 007°11'1514.5
2015-Apr-19 14:30N 43°41' E 007°17'0 0.3
2015-Apr-19 13:27N 43°42' E 007°17'0 0.0
2015-Apr-19 12:33N 43°42' E 007°17'0 0.0
2015-Apr-19 11:33N 43°42' E 007°17'0 0.0
2015-Apr-19 10:33N 43°42' E 007°17'0 0.0
2015-Apr-19 09:33N 43°42' E 007°17'0 0.0
2015-Apr-19 08:33N 43°42' E 007°17'0 0.0
2015-Apr-19 07:33N 43°42' E 007°17'0 0.0
2015-Apr-19 06:27N 43°42' E 007°17'0 0.0
2015-Apr-19 05:33N 43°42' E 007°17'6 5.5
2015-Apr-19 04:32N 43°37' E 007°21'6011.8
2015-Apr-18 23:28N 43°34' E 008°44'1112.2
2015-Apr-18 22:33N 43°33' E 008°59'1212.4
2015-Apr-18 21:33N 43°32' E 009°17'1212.0
2015-Apr-18 20:33N 43°32' E 009°33'1211.9
2015-Apr-18 19:33N 43°31' E 009°49'1211.8
2015-Apr-18 18:33N 43°30' E 010°06'9 9.1
2015-Apr-18 17:33N 43°33' E 010°18'  

Dump ship's entire track history